首页
METAR-TAF:

METAR-TAF

机场 :

班斯卡-比斯特里察, 斯洛伐克

纬度: 48-38-17N, 经度: 019-08-03E, 海拔: 318米

当前天气观测

该预报发布于39分钟前的15:30 UTC
风速8节,风向东南,在南转南东之间变化
温度 2°C
湿度 87%
气压 992 hPa
能见度10公里或以上
阴天层高于2400英尺
小雨

METAR: LZSL 131530Z 13008KT 100V160 9999 -RA OVC024 02/00 Q0992

时间: 17:09 (16:09 UTC)

预报

该预报发布于2小时和9分钟前的14:00 UTC
预报有效从13日的 15点(UTC)到 14日的 00点(UTC)
风速6节,风向南转南东
能见度10公里或以上
散云层高于1000英尺
阴天层高于2000英尺
成为
从 13日的 15点(UTC)到 13日的 17点(UTC)
能見度: 4000
多云层高于800英尺
阴天层高于1600英尺
小雪, 雨, 轻雾
短暂存在
从 13日的 18点(UTC)到 13日的 21点(UTC)
能見度: 1800
多云层高于400英尺
阴天层高于1100英尺
雪, 雨, 轻雾
成为
从 13日的 21点(UTC)到 13日的 23点(UTC)
风速4节,风向北转西北
能見度: 1200
多云层高于300英尺
轻雾

TAF: LZSL 131400Z 1315/1400 15006KT 9999 SCT010 OVC020 BECMG 1315/1317 4000 -SNRA BR BKN008 OVC016 TEMPO 1318/1321 1800 SNRA BR BKN004 OVC011 BECMG 1321/1323 34004KT 1200 BR BKN003

超过4000个机场的气象观测和天气预报(METAR&TAF报告)。

可查询的气象台以黄色和红色小点在地图上表示。

将鼠标移到小点上方,可查看气象台名称。

然后点击查看天气观测和预报。

如需切换地图:点击带黑十字的绿色按钮放大地图;点击带横线的绿色按钮缩小地图;或者点击绿色箭头查看邻近地区的地图。


METAR-TAF: